Time;durP1;ratioP1;P1;durP2;ratioP2;P2;SDS_P1;SDS_P2;PMS_P1;PMS_P2;Temp;Humidity;BMP_temperature;BMP_pressure;BME280_temperature;BME280_humidity;BME280_pressure;Samples;Min_cycle;Max_cycle;Signal;HPM_P1;HPM_P2
2021/05/14 00:00:36;;;;;;;0.70;0.70;;;;;;;11.20;69.93;97159.52;127593;1098;115665;-83
2021/05/14 00:03:02;;;;;;;2.13;0.80;;;;;;;11.20;70.35;97157.64;127601;1104;115817;-83
2021/05/14 00:05:28;;;;;;;0.48;0.48;;;;;;;11.22;70.77;97163.45;127833;1104;115413;-83
2021/05/14 00:07:54;;;;;;;0.60;0.60;;;;;;;11.26;70.36;97160.86;128201;1105;22742;-83
2021/05/14 00:10:22;;;;;;;0.48;0.48;;;;;;;11.29;69.94;97160.96;127499;1105;115421;-82
2021/05/14 00:12:52;;;;;;;0.65;0.65;;;;;;;11.30;69.96;97154.44;127528;1104;115263;-83
2021/05/14 00:15:19;;;;;;;0.48;0.48;;;;;;;11.31;70.03;97161.38;127493;1106;116091;-82
2021/05/14 00:17:45;;;;;;;0.63;0.63;;;;;;;11.33;69.78;97149.50;127511;1104;115595;-82
2021/05/14 00:20:12;;;;;;;0.55;0.55;;;;;;;11.33;69.81;97154.89;128414;1104;22746;-83
2021/05/14 00:22:38;;;;;;;0.70;0.70;;;;;;;11.30;70.13;97149.05;127553;1104;114964;-82
2021/05/14 00:25:11;;;;;;;0.65;0.63;;;;;;;11.30;69.71;97145.57;127478;1105;116164;-82
2021/05/14 00:27:37;;;;;;;0.68;0.68;;;;;;;11.27;69.82;97157.03;127675;1104;115484;-82
2021/05/14 00:30:05;;;;;;;1.35;0.85;;;;;;;11.24;69.63;97145.05;127451;1105;115452;-82
2021/05/14 00:32:31;;;;;;;0.58;0.58;;;;;;;11.22;70.10;97154.59;127500;1105;115787;-82
2021/05/14 00:34:57;;;;;;;0.73;0.73;;;;;;;11.19;69.77;97149.88;128412;1104;22790;-82
2021/05/14 00:37:23;;;;;;;0.68;0.68;;;;;;;11.19;70.17;97158.74;127567;1099;115265;-82
2021/05/14 00:39:49;;;;;;;1.15;0.70;;;;;;;11.20;70.24;97163.02;127491;1105;115782;-82
2021/05/14 00:42:15;;;;;;;0.73;0.73;;;;;;;11.22;70.43;97168.06;127604;1104;115454;-82
2021/05/14 00:44:46;;;;;;;0.85;0.70;;;;;;;11.23;70.00;97161.53;127462;1105;116449;-82
2021/05/14 00:47:16;;;;;;;0.80;0.80;;;;;;;11.23;70.17;97165.02;128282;1104;22760;-83
2021/05/14 00:49:44;;;;;;;1.05;0.70;;;;;;;11.23;70.48;97162.31;127478;1105;115345;-82
2021/05/14 00:52:15;;;;;;;0.70;0.70;;;;;;;11.21;69.68;97164.59;127443;1105;115170;-82
2021/05/14 00:54:43;;;;;;;1.23;0.93;;;;;;;11.20;70.16;97157.64;127504;1099;116328;-82
2021/05/14 00:57:10;;;;;;;0.70;0.70;;;;;;;11.20;70.13;97172.98;127482;1104;115785;-83
2021/05/14 00:59:37;;;;;;;1.05;1.00;;;;;;;11.15;69.58;97160.55;127479;1105;115275;-82
2021/05/14 01:02:05;;;;;;;0.70;0.70;;;;;;;11.09;69.23;97169.23;128276;1105;22771;-82
2021/05/14 01:04:32;;;;;;;1.20;1.10;;;;;;;11.03;69.57;97168.67;127524;1104;115686;-82
2021/05/14 01:06:58;;;;;;;1.03;1.03;;;;;;;10.98;70.44;97179.70;127471;1099;115163;-82
2021/05/14 01:09:24;;;;;;;1.10;1.10;;;;;;;10.95;70.43;97173.08;127513;1106;115302;-82
2021/05/14 01:11:50;;;;;;;1.07;1.07;;;;;;;10.95;71.50;97175.77;127467;1107;115718;-82
2021/05/14 01:14:17;;;;;;;1.05;1.05;;;;;;;10.97;70.90;97170.06;128408;1104;22738;-83
2021/05/14 01:16:43;;;;;;;0.95;0.95;;;;;;;10.98;71.14;97167.02;127479;1105;115554;-83
2021/05/14 01:19:09;;;;;;;0.83;0.83;;;;;;;10.98;70.52;97167.02;127469;1099;115538;-83
2021/05/14 01:21:36;;;;;;;0.80;0.80;;;;;;;10.98;71.28;97171.63;127486;1104;115478;-83
2021/05/14 01:24:03;;;;;;;1.00;0.98;;;;;;;10.97;70.45;97165.45;127593;1104;115722;-82
2021/05/14 01:26:29;;;;;;;1.03;0.90;;;;;;;10.93;70.37;97166.48;127546;1106;115691;-82
2021/05/14 01:28:55;;;;;;;0.90;0.90;;;;;;;10.91;71.11;97171.41;128396;1104;22795;-82
2021/05/14 01:31:22;;;;;;;1.00;1.00;;;;;;;10.83;70.67;97175.80;127525;1105;115652;-82
2021/05/14 01:33:49;;;;;;;0.70;0.70;;;;;;;10.79;71.37;97167.61;127557;1099;117476;-81
2021/05/14 01:36:16;;;;;;;0.60;0.60;;;;;;;10.79;71.41;97180.30;127570;1104;115619;-81
2021/05/14 01:38:42;;;;;;;0.75;0.75;;;;;;;10.80;72.26;97179.16;127675;1104;115501;-82
2021/05/14 01:41:08;;;;;;;0.98;0.70;;;;;;;10.84;72.13;97171.19;128294;1104;22836;-82
2021/05/14 01:43:36;;;;;;;0.80;0.80;;;;;;;10.86;71.85;97171.66;127491;1105;114995;-82
2021/05/14 01:46:04;;;;;;;0.90;0.90;;;;;;;10.86;71.66;97168.95;127478;1105;115284;-82
2021/05/14 01:48:30;;;;;;;0.70;0.70;;;;;;;10.88;71.42;97166.69;127563;1105;115870;-82
2021/05/14 01:51:14;;;;;;;0.68;0.68;;;;;;;10.88;71.16;97166.69;127452;1104;116876;-82
2021/05/14 01:53:40;;;;;;;0.70;0.70;;;;;;;10.86;71.68;97177.04;127530;1105;115047;-82
2021/05/14 01:56:06;;;;;;;0.80;0.80;;;;;;;10.83;71.63;97162.34;128412;1104;22753;-82
2021/05/14 01:58:32;;;;;;;0.75;0.73;;;;;;;10.78;71.74;97170.66;127494;1104;115137;-82
2021/05/14 02:00:58;;;;;;;0.80;0.80;;;;;;;10.73;71.00;97171.68;127572;1104;116588;-82
2021/05/14 02:03:24;;;;;;;0.83;0.83;;;;;;;10.70;71.15;97176.95;127606;1104;115190;-82
2021/05/14 02:05:50;;;;;;;0.90;0.73;;;;;;;10.69;71.74;97178.05;127589;1104;115562;-82
2021/05/14 02:08:16;;;;;;;0.80;0.80;;;;;;;10.70;72.28;97166.97;128315;1104;22745;-82
2021/05/14 02:10:42;;;;;;;1.38;1.05;;;;;;;10.73;72.49;97176.28;127590;1099;115104;-82
2021/05/14 02:13:08;;;;;;;0.80;0.80;;;;;;;10.75;71.82;97171.33;127447;1104;116376;-82
2021/05/14 02:15:34;;;;;;;0.80;0.80;;;;;;;10.78;71.75;97170.66;127491;1107;116179;-82
2021/05/14 02:18:00;;;;;;;1.28;1.20;;;;;;;10.81;71.24;97178.06;127506;1099;115409;-82
2021/05/14 02:20:27;;;;;;;1.35;1.05;;;;;;;10.84;71.12;97188.13;128275;1105;22897;-82
2021/05/14 02:22:52;;;;;;;1.05;1.05;;;;;;;10.85;70.70;97183.55;127554;1104;115527;-82
2021/05/14 02:25:19;;;;;;;1.20;1.10;;;;;;;10.83;70.94;97181.19;127648;1104;115991;-82
2021/05/14 02:27:45;;;;;;;0.80;0.80;;;;;;;10.81;70.94;97173.45;127666;1104;115582;-82
2021/05/14 02:30:12;;;;;;;0.95;0.93;;;;;;;10.81;70.31;97186.14;127602;1104;115351;-82
2021/05/14 02:32:38;;;;;;;0.90;0.90;;;;;;;10.79;70.01;97188.38;127636;1104;115839;-82
2021/05/14 02:35:05;;;;;;;1.00;1.00;;;;;;;10.75;70.51;97188.27;128382;1104;22757;-82
2021/05/14 02:37:31;;;;;;;0.88;0.88;;;;;;;10.71;71.04;97195.45;127591;1104;114995;-82
2021/05/14 02:39:57;;;;;;;2.13;0.90;;;;;;;10.72;71.06;97188.94;127594;1104;115124;-82
2021/05/14 02:42:23;;;;;;;1.00;1.00;;;;;;;10.75;71.36;97193.65;127475;1100;115960;-82
2021/05/14 02:44:49;;;;;;;1.00;1.00;;;;;;;10.76;71.53;97186.35;127494;1105;115178;-82
2021/05/14 02:47:15;;;;;;;1.08;1.08;;;;;;;10.77;70.72;97185.25;128298;1105;22947;-82
2021/05/14 02:49:42;;;;;;;2.75;1.13;;;;;;;10.77;71.01;97194.11;127565;1104;115703;-82
2021/05/14 02:52:08;;;;;;;1.23;1.15;;;;;;;10.77;70.70;97183.34;127501;1105;115583;-82
2021/05/14 02:54:35;;;;;;;0.90;0.90;;;;;;;10.74;70.63;97192.09;127582;1104;115437;-81
2021/05/14 02:57:04;;;;;;;0.90;0.90;;;;;;;10.73;70.31;97198.60;127579;1104;116180;-82
2021/05/14 02:59:30;;;;;;;0.90;0.90;;;;;;;10.72;70.26;97197.02;127689;1104;116621;-82
2021/05/14 03:01:56;;;;;;;0.90;0.90;;;;;;;10.67;70.51;97205.33;128386;1104;22734;-82
2021/05/14 03:04:22;;;;;;;0.80;0.80;;;;;;;10.65;70.52;97202.20;127476;1104;115705;-82
2021/05/14 03:06:48;;;;;;;0.80;0.80;;;;;;;10.68;71.34;97203.41;127605;1104;116070;-82
2021/05/14 03:09:14;;;;;;;2.68;1.10;;;;;;;10.69;71.44;97200.41;127558;1099;115504;-83
2021/05/14 03:11:40;;;;;;;0.80;0.80;;;;;;;10.70;70.91;97193.11;127461;1100;115641;-82
2021/05/14 03:14:06;;;;;;;1.50;0.90;;;;;;;10.71;70.16;97200.05;128395;1104;22917;-82
2021/05/14 03:16:34;;;;;;;1.25;0.95;;;;;;;10.70;70.43;97199.27;127426;1104;115746;-82
2021/05/14 03:19:01;;;;;;;1.13;0.75;;;;;;;10.69;70.28;97200.41;127433;1100;117969;-82
2021/05/14 03:21:30;;;;;;;1.25;1.20;;;;;;;10.69;69.87;97199.59;127457;1105;115921;-81
2021/05/14 03:23:56;;;;;;;2.10;1.13;;;;;;;10.68;70.35;97208.80;127527;1104;116007;-81
2021/05/14 03:26:22;;;;;;;1.33;1.23;;;;;;;10.68;70.73;97220.34;128388;1104;22753;-82
2021/05/14 03:28:48;;;;;;;2.50;1.38;;;;;;;10.70;70.88;97226.19;127604;1104;115084;-82
2021/05/14 03:31:14;;;;;;;1.95;0.90;;;;;;;10.73;71.14;97228.22;127439;1104;115240;-82
2021/05/14 03:33:40;;;;;;;2.63;1.28;;;;;;;10.75;70.72;97220.57;127441;1105;114302;-82
2021/05/14 03:36:06;;;;;;;1.10;1.00;;;;;;;10.75;70.51;97227.86;127534;1104;116132;-82
2021/05/14 03:38:33;;;;;;;1.27;1.20;;;;;;;10.76;70.46;97230.20;127492;1104;116098;-82
2021/05/14 03:41:16;;;;;;;1.15;1.05;;;;;;;10.77;70.09;97221.03;128334;1104;22764;-82
2021/05/14 03:43:42;;;;;;;1.63;1.35;;;;;;;10.79;70.04;97232.23;127560;1104;116520;-82
2021/05/14 03:46:09;;;;;;;1.83;1.25;;;;;;;10.79;70.40;97234.92;127551;1104;115568;-82
2021/05/14 03:48:35;;;;;;;1.63;1.50;;;;;;;10.77;70.17;97228.33;127441;1100;115920;-82
2021/05/14 03:51:01;;;;;;;1.63;1.33;;;;;;;10.75;70.31;97228.65;127462;1104;115983;-82
2021/05/14 03:53:27;;;;;;;1.35;1.25;;;;;;;10.74;70.32;97229.78;128289;1104;22763;-82
2021/05/14 03:55:53;;;;;;;1.60;1.50;;;;;;;10.74;70.81;97231.69;127465;1105;114866;-82
2021/05/14 03:58:19;;;;;;;1.45;1.35;;;;;;;10.79;70.75;97240.31;127480;1105;115544;-82
2021/05/14 04:00:46;;;;;;;1.85;1.43;;;;;;;10.80;71.80;97241.88;127479;1107;115935;-81
2021/05/14 04:03:16;;;;;;;1.58;1.48;;;;;;;10.87;70.95;97244.01;127556;1104;115956;-82
2021/05/14 04:05:42;;;;;;;1.98;1.40;;;;;;;10.89;70.91;97241.77;127443;1104;115421;-82
2021/05/14 04:08:10;;;;;;;1.73;1.60;;;;;;;10.90;70.32;97245.25;128224;1105;22789;-82
2021/05/14 04:16:00;;;;;;;1.40;1.30;;;;;;;10.91;70.49;97249.50;127579;1104;115439;-82
2021/05/14 04:18:26;;;;;;;1.70;1.60;;;;;;;10.91;70.59;97244.12;127438;1104;116432;-82
2021/05/14 04:20:52;;;;;;;1.53;1.43;;;;;;;10.92;71.21;97243.77;127554;1104;115745;-81
2021/05/14 04:23:19;;;;;;;2.08;1.50;;;;;;;10.96;71.11;97251.95;128298;1104;22737;-82
2021/05/14 04:25:45;;;;;;;1.65;1.55;;;;;;;11.00;71.71;97252.84;127456;1104;115228;-82
2021/05/14 04:28:11;;;;;;;1.88;1.78;;;;;;;11.03;71.35;97246.79;127472;1105;115935;-81
2021/05/14 04:30:38;;;;;;;1.68;1.58;;;;;;;11.05;71.22;97255.33;127534;1100;116483;-82
2021/05/14 04:33:06;;;;;;;2.70;1.80;;;;;;;11.06;71.25;97252.28;127627;1104;115932;-82
2021/05/14 04:35:33;;;;;;;1.30;1.30;;;;;;;11.05;70.78;97266.89;127489;1104;117098;-82
2021/05/14 04:38:00;;;;;;;1.68;1.58;;;;;;;11.04;70.91;97262.63;128455;1104;22804;-82
2021/05/14 04:40:26;;;;;;;2.50;1.70;;;;;;;10.99;70.61;97268.23;127480;1099;115509;-82
2021/05/14 04:42:58;;;;;;;2.98;1.65;;;;;;;10.93;71.10;97256.13;127582;1104;115452;-83
2021/05/14 04:45:24;;;;;;;1.78;1.68;;;;;;;10.91;72.02;97260.27;127583;1100;115887;-83
2021/05/14 04:47:50;;;;;;;2.10;1.90;;;;;;;10.93;72.37;97258.83;127589;1104;116327;-83
2021/05/14 04:50:18;;;;;;;1.63;1.53;;;;;;;10.93;71.91;97268.81;128369;1104;22793;-83
2021/05/14 04:52:46;;;;;;;3.65;1.93;;;;;;;10.93;72.17;97261.52;127544;1104;115849;-83
2021/05/14 04:55:12;;;;;;;2.23;1.70;;;;;;;10.91;71.97;97260.27;127645;1098;115712;-82
2021/05/14 04:57:39;;;;;;;1.73;1.63;;;;;;;10.93;72.41;97263.43;127521;1105;115512;-83
2021/05/14 05:00:06;;;;;;;3.07;1.70;;;;;;;10.96;72.06;97285.06;127476;1105;115969;-83
2021/05/14 05:02:33;;;;;;;4.90;2.00;;;;;;;10.98;72.10;97277.44;127458;1105;115533;-82
2021/05/14 05:05:00;;;;;;;2.45;1.85;;;;;;;11.01;72.95;97271.38;128393;1104;22826;-82
2021/05/14 05:07:27;;;;;;;4.48;1.98;;;;;;;11.06;72.59;97276.53;127565;1104;115488;-81
2021/05/14 05:09:54;;;;;;;2.13;1.90;;;;;;;11.10;72.21;97270.47;127457;1104;115766;-82
2021/05/14 05:12:20;;;;;;;2.65;2.10;;;;;;;11.12;71.94;97274.41;127520;1099;116205;-82
2021/05/14 05:14:46;;;;;;;3.15;2.28;;;;;;;11.14;72.00;97274.84;127426;1104;116240;-85
2021/05/14 05:17:12;;;;;;;2.30;1.95;;;;;;;11.15;72.68;97279.09;128216;1104;22732;-84
2021/05/14 05:19:38;;;;;;;2.38;1.95;;;;;;;11.15;71.79;97292.56;127626;1104;116049;-83
2021/05/14 05:22:04;;;;;;;5.38;2.50;;;;;;;11.13;71.64;97288.66;127613;1098;116209;-82
2021/05/14 05:24:30;;;;;;;4.50;2.10;;;;;;;11.14;71.95;97280.22;127734;1104;115621;-82
2021/05/14 05:26:55;;;;;;;3.28;2.08;;;;;;;11.17;72.50;97290.33;127619;1099;115609;-81
2021/05/14 05:29:21;;;;;;;2.78;2.03;;;;;;;11.17;71.61;97297.63;128382;1104;22681;-81
2021/05/14 05:31:48;;;;;;;2.30;1.95;;;;;;;11.16;71.63;97293.34;127386;1104;115250;-81
2021/05/14 05:34:14;;;;;;;1.93;1.73;;;;;;;11.15;71.64;97313.34;127194;1105;115400;-81
2021/05/14 05:36:40;;;;;;;3.78;2.10;;;;;;;11.15;72.17;97302.56;127183;1105;115689;-81
2021/05/14 05:39:06;;;;;;;2.88;2.23;;;;;;;11.15;72.33;97311.42;127259;1100;115631;-81
2021/05/14 05:41:32;;;;;;;3.05;2.43;;;;;;;11.16;72.16;97307.63;127255;1105;115619;-81
2021/05/14 05:43:58;;;;;;;3.80;2.40;;;;;;;11.20;71.90;97319.30;127958;1105;22792;-80
2021/05/14 05:46:24;;;;;;;3.43;2.33;;;;;;;11.23;72.08;97310.51;127219;1105;114978;-82
2021/05/14 05:48:51;;;;;;;3.05;2.10;;;;;;;11.20;71.63;97315.79;127241;1105;115825;-81
2021/05/14 05:51:18;;;;;;;3.23;2.05;;;;;;;11.19;71.90;97316.92;127339;1105;115986;-82
2021/05/14 05:53:44;;;;;;;3.70;2.05;;;;;;;11.18;71.87;97315.36;127263;1104;115731;-83
2021/05/14 05:56:11;;;;;;;3.73;2.58;;;;;;;11.13;72.38;97326.38;128287;1104;22756;-82
2021/05/14 05:58:37;;;;;;;3.38;2.28;;;;;;;11.09;72.23;97323.56;127674;1104;115276;-82
2021/05/14 06:01:04;;;;;;;4.80;2.60;;;;;;;11.12;72.58;97319.39;127481;1104;115836;-81
2021/05/14 06:03:30;;;;;;;3.15;2.10;;;;;;;11.13;73.22;97324.45;127514;1099;115710;-82
2021/05/14 06:05:57;;;;;;;2.93;2.23;;;;;;;11.19;72.69;97333.09;127446;1104;115730;-82
2021/05/14 06:08:24;;;;;;;2.50;2.13;;;;;;;11.19;72.89;97325.00;128367;1104;22756;-82
2021/05/14 06:10:52;;;;;;;2.80;1.93;;;;;;;11.23;72.47;97331.28;127563;1104;115158;-83
2021/05/14 06:13:19;;;;;;;2.78;2.05;;;;;;;11.27;72.26;97332.17;127660;1100;116400;-83
2021/05/14 06:15:45;;;;;;;3.20;1.90;;;;;;;11.27;72.08;97341.05;127604;1104;115785;-83
2021/05/14 06:18:16;;;;;;;2.20;2.00;;;;;;;11.29;72.00;97328.03;127623;1099;115874;-83
2021/05/14 06:20:46;;;;;;;3.93;1.80;;;;;;;11.29;71.28;97346.89;127588;1104;115710;-83
2021/05/14 06:23:13;;;;;;;2.10;1.90;;;;;;;11.26;71.58;97344.09;128417;1105;22756;-83
2021/05/14 06:25:39;;;;;;;2.73;1.78;;;;;;;11.28;72.45;97339.16;127592;1104;115774;-83
2021/05/14 06:28:06;;;;;;;2.08;1.63;;;;;;;11.29;72.29;97354.98;127536;1104;115549;-84
2021/05/14 06:30:33;;;;;;;2.80;1.88;;;;;;;11.33;72.41;97355.09;127615;1104;115464;-83
2021/05/14 06:32:59;;;;;;;1.90;1.80;;;;;;;11.37;71.90;97357.89;127603;1104;116388;-83
2021/05/14 06:35:29;;;;;;;1.88;1.68;;;;;;;11.36;71.64;97356.30;128453;1104;22774;-84
2021/05/14 06:37:55;;;;;;;2.03;1.80;;;;;;;11.36;71.80;97362.50;128351;1104;23366;-84
2021/05/14 06:40:20;;;;;;;1.70;1.60;;;;;;;11.33;71.45;97373.17;127386;1100;115385;-83
2021/05/14 06:42:46;;;;;;;2.07;1.67;;;;;;;11.30;71.74;97371.92;127601;1104;116028;-83
2021/05/14 06:45:12;;;;;;;1.80;1.70;;;;;;;11.30;71.29;97366.53;127474;1105;115643;-83
2021/05/14 06:47:38;;;;;;;3.33;2.10;;;;;;;11.28;72.35;97374.19;127623;1104;115663;-83
2021/05/14 06:50:05;;;;;;;3.30;1.90;;;;;;;11.27;72.10;97370.69;128363;1104;22764;-86
2021/05/14 06:52:33;;;;;;;1.25;1.18;;;;;;;11.29;72.70;97365.76;127598;1100;115360;-86
2021/05/14 06:55:00;;;;;;;2.08;1.63;;;;;;;11.31;72.12;97389.66;127512;1104;115220;-86
2021/05/14 06:57:26;;;;;;;1.35;1.25;;;;;;;11.26;72.13;97374.52;127624;1104;115839;-84
2021/05/14 06:59:52;;;;;;;1.48;1.40;;;;;;;11.21;71.61;97379.36;127601;1104;116441;-83
2021/05/14 07:02:19;;;;;;;1.60;1.50;;;;;;;11.15;72.48;97388.77;128377;1104;22757;-84
2021/05/14 07:04:45;;;;;;;2.35;1.70;;;;;;;11.09;72.50;97385.53;127578;1104;114839;-84
2021/05/14 07:07:12;;;;;;;1.80;1.70;;;;;;;11.08;73.30;97389.32;127438;1104;115395;-83
2021/05/14 07:09:39;;;;;;;2.80;1.65;;;;;;;11.10;73.04;97380.92;127544;1104;115635;-81
2021/05/14 07:12:05;;;;;;;1.58;1.48;;;;;;;11.15;73.45;97383.38;127623;1104;116202;-82
2021/05/14 07:14:31;;;;;;;1.50;1.40;;;;;;;11.21;73.42;97387.44;127541;1099;115957;-81
2021/05/14 07:16:57;;;;;;;1.45;1.38;;;;;;;11.26;73.27;97387.20;128422;1104;22886;-81
2021/05/14 07:19:25;;;;;;;1.60;1.50;;;;;;;11.31;72.97;97392.36;127662;1104;115293;-82
2021/05/14 07:21:51;;;;;;;1.40;1.20;;;;;;;11.33;73.02;97398.21;127659;1104;115718;-83
2021/05/14 07:24:18;;;;;;;1.80;1.70;;;;;;;11.36;73.34;97413.71;127568;1104;115094;-83
2021/05/14 07:26:44;;;;;;;1.33;1.30;;;;;;;11.35;73.29;97404.03;127558;1104;115655;-84
2021/05/14 07:29:10;;;;;;;1.60;1.45;;;;;;;11.37;73.09;97398.33;128412;1105;22770;-83
2021/05/14 07:31:35;;;;;;;1.73;1.60;;;;;;;11.42;73.21;97390.78;127509;1106;114968;-82
2021/05/14 07:34:02;;;;;;;1.60;1.50;;;;;;;11.50;73.41;97413.35;127600;1104;115390;-83
2021/05/14 07:36:29;;;;;;;1.68;1.58;;;;;;;11.53;73.28;97409.98;127636;1104;115747;-82
2021/05/14 07:38:55;;;;;;;1.70;1.60;;;;;;;11.52;73.04;97413.81;127682;1104;115441;-83
2021/05/14 07:41:21;;;;;;;1.50;1.40;;;;;;;11.47;73.90;97409.41;128414;1105;22801;-81
2021/05/14 07:43:47;;;;;;;1.58;1.48;;;;;;;11.44;73.39;97412.80;127654;1104;114574;-81
2021/05/14 07:46:13;;;;;;;1.78;1.68;;;;;;;11.43;73.37;97411.21;127637;1104;116276;-81
2021/05/14 07:48:39;;;;;;;1.70;1.60;;;;;;;11.45;72.33;97402.80;127510;1105;115282;-81
2021/05/14 07:51:06;;;;;;;3.00;1.30;;;;;;;11.47;74.31;97417.50;127631;1104;115491;-82
2021/05/14 07:53:32;;;;;;;1.48;1.20;;;;;;;11.50;74.37;97419.52;127549;1105;115124;-81
2021/05/14 07:55:58;;;;;;;1.60;1.50;;;;;;;11.58;73.64;97425.14;128448;1100;22733;-81
2021/05/14 07:58:24;;;;;;;1.68;1.58;;;;;;;11.67;73.41;97420.40;127572;1104;115140;-81
2021/05/14 08:00:51;;;;;;;1.20;1.20;;;;;;;11.73;73.29;97424.45;127542;1104;115476;-80
2021/05/14 08:03:17;;;;;;;1.50;1.40;;;;;;;11.75;73.37;97423.00;127598;1104;115431;-82
2021/05/14 08:05:46;;;;;;;1.90;1.40;;;;;;;11.78;72.98;97421.51;127644;1104;115835;-81
2021/05/14 08:08:17;;;;;;;1.03;1.03;;;;;;;11.69;72.19;97428.95;128447;1099;22733;-81
2021/05/14 08:10:46;;;;;;;1.60;1.50;;;;;;;11.66;73.08;97440.41;127672;1104;115359;-82
2021/05/14 08:13:12;;;;;;;1.45;1.35;;;;;;;11.68;74.17;97438.17;127660;1105;115036;-81
2021/05/14 08:15:41;;;;;;;1.90;1.43;;;;;;;11.70;74.04;97436.69;127691;1099;115699;-82
2021/05/14 08:18:06;;;;;;;1.55;1.45;;;;;;;11.75;73.72;97430.27;127555;1104;115864;-82
2021/05/14 08:20:41;;;;;;;1.50;1.40;;;;;;;11.84;73.58;97447.16;127683;1104;115104;-82
2021/05/14 08:23:08;;;;;;;1.30;1.20;;;;;;;11.89;72.99;97436.13;128505;1100;22732;-81
2021/05/14 08:25:36;;;;;;;1.53;1.43;;;;;;;11.96;73.38;97451.75;127619;1104;115542;-82
2021/05/14 08:28:03;;;;;;;1.63;1.40;;;;;;;12.04;73.27;97442.73;127645;1104;115681;-81
2021/05/14 08:30:30;;;;;;;1.58;1.48;;;;;;;12.14;73.03;97442.24;127670;1104;115375;-82
2021/05/14 08:32:56;;;;;;;1.60;1.38;;;;;;;12.20;72.68;97446.28;127620;1105;115245;-83
2021/05/14 08:35:22;;;;;;;1.60;1.50;;;;;;;12.24;72.00;97440.99;128420;1105;22904;-84
2021/05/14 08:37:48;;;;;;;1.18;1.18;;;;;;;12.27;72.06;97438.40;127630;1104;115289;-82
2021/05/14 08:40:16;;;;;;;1.40;1.25;;;;;;;12.21;70.94;97468.66;127663;1105;115222;-83
2021/05/14 08:42:43;;;;;;;1.80;1.25;;;;;;;12.13;71.64;97458.78;127626;1105;115224;-82
2021/05/14 08:45:12;;;;;;;2.10;1.25;;;;;;;12.12;71.82;97465.32;127623;1104;116380;-82
2021/05/14 08:47:40;;;;;;;1.50;1.40;;;;;;;12.16;73.07;97461.59;127702;1104;115318;-82
2021/05/14 08:50:08;;;;;;;1.85;1.15;;;;;;;12.21;72.90;97479.45;128419;1099;22972;-82
2021/05/14 08:52:37;;;;;;;1.35;1.20;;;;;;;12.26;72.51;97465.71;127652;1105;115784;-82
2021/05/14 08:55:06;;;;;;;2.35;1.28;;;;;;;12.24;71.93;97470.68;127711;1104;116316;-82
2021/05/14 08:57:33;;;;;;;1.18;1.10;;;;;;;12.25;72.06;97466.84;127612;1104;115849;-81
2021/05/14 08:59:59;;;;;;;1.33;1.10;;;;;;;12.25;71.82;97483.04;127608;1104;115893;-82
2021/05/14 09:02:25;;;;;;;1.08;1.03;;;;;;;12.26;71.96;97487.30;128398;1105;23494;-82
2021/05/14 09:04:51;;;;;;;1.28;1.15;;;;;;;12.24;72.12;97484.95;127619;1104;115259;-83
2021/05/14 09:07:19;;;;;;;1.15;1.10;;;;;;;12.26;72.31;97482.72;127602;1098;115550;-82
2021/05/14 09:10:07;;;;;;;1.10;1.00;;;;;;;12.32;73.17;97480.55;127627;1104;115500;-84
2021/05/14 09:12:39;;;;;;;1.15;1.15;;;;;;;12.34;72.30;97481.01;127714;1104;115552;-83
2021/05/14 09:15:34;;;;;;;1.00;1.00;;;;;;;12.39;71.99;97482.67;127491;1104;115709;-82
2021/05/14 09:18:17;;;;;;;1.28;1.18;;;;;;;12.42;71.68;97490.88;127624;1104;115422;-81
2021/05/14 09:20:51;;;;;;;1.50;1.40;;;;;;;12.40;71.71;97486.94;127683;1104;117200;-80
2021/05/14 09:23:23;;;;;;;2.40;1.20;;;;;;;12.39;72.31;97482.67;128391;1104;23185;-80
2021/05/14 09:26:02;;;;;;;1.35;1.35;;;;;;;12.47;72.04;97490.63;127640;1104;114718;-81
2021/05/14 09:28:32;;;;;;;1.95;1.50;;;;;;;12.66;72.05;97484.59;127671;1100;115142;-80
2021/05/14 09:31:08;;;;;;;1.30;1.20;;;;;;;12.87;72.17;97494.41;127502;1104;116092;-82
2021/05/14 09:33:36;;;;;;;1.38;1.28;;;;;;;12.98;70.64;97498.17;127642;1104;115757;-85
2021/05/14 09:36:11;;;;;;;1.50;1.40;;;;;;;13.00;70.96;97504.78;127520;1105;116471;-85
2021/05/14 09:38:53;;;;;;;1.30;1.30;;;;;;;12.92;70.18;97499.55;127591;1105;115586;-85
2021/05/14 09:41:42;;;;;;;1.45;1.30;;;;;;;12.92;70.41;97499.55;128435;1104;24716;-84
2021/05/14 09:44:20;;;;;;;1.40;1.30;;;;;;;12.89;70.47;97501.04;128484;1104;22756;-82
2021/05/14 09:46:48;;;;;;;1.38;1.28;;;;;;;12.84;70.74;97497.78;127629;1104;115105;-81
2021/05/14 09:49:20;;;;;;;1.30;1.20;;;;;;;12.85;70.91;97505.56;127601;1099;115983;-82
2021/05/14 09:51:54;;;;;;;1.95;1.40;;;;;;;12.88;72.08;97504.85;127632;1104;115537;-82
2021/05/14 09:54:32;;;;;;;1.73;1.38;;;;;;;12.91;71.49;97508.79;127672;1104;115311;-82
2021/05/14 09:57:35;;;;;;;1.50;1.40;;;;;;;12.90;70.81;97516.11;127643;1104;116233;-82
2021/05/14 10:00:05;;;;;;;1.50;1.40;;;;;;;12.89;71.03;97513.73;127653;1104;115294;-83
2021/05/14 10:02:36;;;;;;;1.35;1.35;;;;;;;12.93;70.01;97507.33;127538;1104;115376;-83
2021/05/14 10:05:12;;;;;;;1.83;1.58;;;;;;;12.95;70.54;97521.26;128526;1104;22767;-82
2021/05/14 10:07:40;;;;;;;1.65;1.55;;;;;;;12.95;70.33;97505.05;127598;1104;115689;-84
2021/05/14 10:10:11;;;;;;;1.50;1.40;;;;;;;12.99;70.91;97518.66;127306;1104;115985;-83
2021/05/14 10:12:37;;;;;;;3.10;1.60;;;;;;;13.15;70.91;97518.69;127248;1106;115558;-82
2021/05/14 10:15:06;;;;;;;1.58;1.48;;;;;;;13.29;71.33;97504.79;127257;1105;115300;-82
2021/05/14 10:17:33;;;;;;;1.50;1.40;;;;;;;13.40;70.55;97511.22;127252;1105;115330;-83
2021/05/14 10:20:01;;;;;;;1.70;1.43;;;;;;;13.50;70.53;97510.72;128078;1104;22760;-83
2021/05/14 10:22:30;;;;;;;1.70;1.40;;;;;;;13.54;69.80;97503.47;127221;1106;115311;-81
2021/05/14 10:24:59;;;;;;;1.63;1.53;;;;;;;13.48;68.55;97508.38;127386;1104;116226;-81
2021/05/14 10:27:37;;;;;;;1.38;1.28;;;;;;;13.41;68.48;97502.00;127579;1100;116241;-82
2021/05/14 10:30:05;;;;;;;2.15;1.15;;;;;;;13.43;68.86;97524.84;127287;1105;116017;-81
2021/05/14 10:32:40;;;;;;;1.50;1.40;;;;;;;13.48;67.49;97515.70;127501;1099;115913;-81
2021/05/14 10:35:08;;;;;;;1.50;1.40;;;;;;;13.57;69.14;97519.00;128169;1104;22725;-81
2021/05/14 10:37:48;;;;;;;1.88;1.30;;;;;;;13.67;68.29;97513.05;127254;1104;115407;-81
2021/05/14 10:40:31;;;;;;;2.08;1.10;;;;;;;13.77;68.31;97517.16;127442;1100;116141;-81
2021/05/14 10:43:03;;;;;;;1.20;1.20;;;;;;;13.79;67.36;97522.21;127510;1104;116428;-81
2021/05/14 10:45:48;;;;;;;;;;;;;;;13.63;67.16;97506.77;127674;1104;115684;-82
2021/05/14 10:48:20;;;;;;;1.53;1.43;;;;;;;13.52;66.48;97511.16;127716;1104;101618;-82
2021/05/14 10:50:57;;;;;;;1.58;1.48;;;;;;;13.43;66.88;97524.05;127627;1104;115554;-82
2021/05/14 10:53:35;;;;;;;1.00;1.00;;;;;;;13.42;66.53;97525.98;128451;1104;22764;-81
2021/05/14 10:56:31;;;;;;;1.53;1.43;;;;;;;13.44;66.50;97531.84;128416;1104;22732;-80
2021/05/14 10:59:03;;;;;;;1.10;1.10;;;;;;;13.58;66.52;97536.80;128371;1104;22785;-80
2021/05/14 11:01:43;;;;;;;1.50;1.40;;;;;;;13.76;67.33;97529.13;127674;1104;115560;-80
2021/05/14 11:04:12;;;;;;;1.60;1.50;;;;;;;13.89;66.89;97530.59;127638;1100;116490;-80
2021/05/14 11:06:46;;;;;;;1.50;1.40;;;;;;;13.98;67.34;97538.52;127509;1104;115572;-80
2021/05/14 11:09:14;;;;;;;1.40;1.30;;;;;;;14.00;66.91;97542.45;127659;1104;116770;-82
2021/05/14 11:12:00;;;;;;;1.40;1.30;;;;;;;13.98;65.48;97533.88;127571;1099;115597;-81
2021/05/14 11:14:39;;;;;;;1.28;1.23;;;;;;;13.95;64.36;97539.20;128389;1104;22734;-81
2021/05/14 11:17:19;;;;;;;1.38;1.23;;;;;;;13.88;64.76;97534.44;128455;1104;22817;-81
2021/05/14 11:19:53;;;;;;;1.28;0.93;;;;;;;13.99;64.64;97530.05;127552;1104;114995;-81
2021/05/14 11:22:22;;;;;;;1.30;1.20;;;;;;;14.18;63.75;97533.93;127572;1104;115384;-81
2021/05/14 11:24:53;;;;;;;1.08;1.08;;;;;;;14.28;62.72;97540.73;127685;1099;116052;-82
2021/05/14 11:27:31;;;;;;;0.80;0.80;;;;;;;14.34;62.90;97547.42;127483;1104;115526;-82
2021/05/14 11:30:05;;;;;;;0.90;0.90;;;;;;;14.36;63.10;97531.63;127570;1104;116039;-82